sensor_id;sensor_type;location;lat;lon;timestamp;P1;durP1;ratioP1;P2;durP2;ratioP2
30617;SDS011;17384;51.214;9.202;2023-06-05T00:08:18;6.05;;;2.83;;
30617;SDS011;17384;51.214;9.202;2023-06-05T00:14:14;8.70;;;2.83;;
30617;SDS011;17384;51.214;9.202;2023-06-05T00:23:31;4.95;;;3.63;;
30617;SDS011;17384;51.214;9.202;2023-06-05T00:35:30;10.48;;;3.08;;
30617;SDS011;17384;51.214;9.202;2023-06-05T00:55:32;4.97;;;2.97;;
30617;SDS011;17384;51.214;9.202;2023-06-05T01:01:43;5.25;;;3.70;;
30617;SDS011;17384;51.214;9.202;2023-06-05T01:07:41;4.03;;;2.95;;
30617;SDS011;17384;51.214;9.202;2023-06-05T01:10:29;7.65;;;3.28;;
30617;SDS011;17384;51.214;9.202;2023-06-05T01:13:43;4.25;;;3.15;;
30617;SDS011;17384;51.214;9.202;2023-06-05T01:17:03;5.00;;;3.40;;
30617;SDS011;17384;51.214;9.202;2023-06-05T01:29:23;3.53;;;2.92;;
30617;SDS011;17384;51.214;9.202;2023-06-05T01:35:26;5.05;;;3.33;;
30617;SDS011;17384;51.214;9.202;2023-06-05T01:44:46;7.15;;;2.97;;
30617;SDS011;17384;51.214;9.202;2023-06-05T01:50:46;5.53;;;3.60;;
30617;SDS011;17384;51.214;9.202;2023-06-05T02:10:59;4.75;;;3.22;;
30617;SDS011;17384;51.214;9.202;2023-06-05T02:13:38;4.72;;;2.90;;
30617;SDS011;17384;51.214;9.202;2023-06-05T02:17:26;4.80;;;3.45;;
30617;SDS011;17384;51.214;9.202;2023-06-05T02:36:23;4.15;;;3.17;;
30617;SDS011;17384;51.214;9.202;2023-06-05T03:02:47;4.20;;;3.03;;
30617;SDS011;17384;51.214;9.202;2023-06-05T03:06:01;3.58;;;2.78;;
30617;SDS011;17384;51.214;9.202;2023-06-05T03:11:32;8.73;;;3.88;;
30617;SDS011;17384;51.214;9.202;2023-06-05T03:14:07;9.63;;;3.50;;
30617;SDS011;17384;51.214;9.202;2023-06-05T03:16:33;6.43;;;3.65;;
30617;SDS011;17384;51.214;9.202;2023-06-05T03:19:21;4.40;;;3.60;;
30617;SDS011;17384;51.214;9.202;2023-06-05T03:24:49;5.57;;;3.78;;
30617;SDS011;17384;51.214;9.202;2023-06-05T03:27:21;6.95;;;3.72;;
30617;SDS011;17384;51.214;9.202;2023-06-05T03:29:54;4.55;;;3.35;;
30617;SDS011;17384;51.214;9.202;2023-06-05T03:32:24;4.07;;;3.30;;
30617;SDS011;17384;51.214;9.202;2023-06-05T03:34:50;5.80;;;3.03;;
30617;SDS011;17384;51.214;9.202;2023-06-05T03:43:47;4.35;;;3.67;;
30617;SDS011;17384;51.214;9.202;2023-06-05T03:54:26;4.35;;;3.55;;
30617;SDS011;17384;51.214;9.202;2023-06-05T03:57:12;6.40;;;3.22;;
30617;SDS011;17384;51.214;9.202;2023-06-05T03:59:40;11.15;;;4.68;;
30617;SDS011;17384;51.214;9.202;2023-06-05T04:02:05;5.95;;;3.90;;
30617;SDS011;17384;51.214;9.202;2023-06-05T04:04:43;12.75;;;4.07;;
30617;SDS011;17384;51.214;9.202;2023-06-05T04:07:18;8.10;;;4.53;;
30617;SDS011;17384;51.214;9.202;2023-06-05T04:09:47;6.85;;;4.07;;
30617;SDS011;17384;51.214;9.202;2023-06-05T04:12:21;6.10;;;3.45;;
30617;SDS011;17384;51.214;9.202;2023-06-05T04:14:47;5.88;;;3.38;;
30617;SDS011;17384;51.214;9.202;2023-06-05T04:19:58;4.60;;;3.03;;
30617;SDS011;17384;51.214;9.202;2023-06-05T04:22:24;7.35;;;3.70;;
30617;SDS011;17384;51.214;9.202;2023-06-05T04:56:09;5.57;;;3.33;;
30617;SDS011;17384;51.214;9.202;2023-06-05T04:58:46;8.18;;;3.85;;
30617;SDS011;17384;51.214;9.202;2023-06-05T05:01:23;4.07;;;3.67;;
30617;SDS011;17384;51.214;9.202;2023-06-05T05:03:49;9.10;;;3.60;;
30617;SDS011;17384;51.214;9.202;2023-06-05T05:09:29;16.70;;;4.72;;
30617;SDS011;17384;51.214;9.202;2023-06-05T05:11:58;9.25;;;4.13;;
30617;SDS011;17384;51.214;9.202;2023-06-05T05:14:29;10.55;;;3.90;;
30617;SDS011;17384;51.214;9.202;2023-06-05T05:17:05;10.60;;;4.20;;
30617;SDS011;17384;51.214;9.202;2023-06-05T05:22:31;5.97;;;3.78;;
30617;SDS011;17384;51.214;9.202;2023-06-05T05:24:57;10.65;;;4.32;;
30617;SDS011;17384;51.214;9.202;2023-06-05T05:27:26;12.60;;;4.13;;
30617;SDS011;17384;51.214;9.202;2023-06-05T05:29:55;7.00;;;3.80;;
30617;SDS011;17384;51.214;9.202;2023-06-05T05:32:20;8.77;;;4.20;;
30617;SDS011;17384;51.214;9.202;2023-06-05T05:34:56;6.20;;;4.30;;
30617;SDS011;17384;51.214;9.202;2023-06-05T05:39:57;6.65;;;3.60;;
30617;SDS011;17384;51.214;9.202;2023-06-05T05:42:23;12.45;;;4.07;;
30617;SDS011;17384;51.214;9.202;2023-06-05T05:44:48;6.85;;;3.92;;
30617;SDS011;17384;51.214;9.202;2023-06-05T05:47:14;6.32;;;3.47;;
30617;SDS011;17384;51.214;9.202;2023-06-05T05:49:40;11.10;;;4.15;;
30617;SDS011;17384;51.214;9.202;2023-06-05T05:52:06;9.73;;;3.70;;
30617;SDS011;17384;51.214;9.202;2023-06-05T05:54:32;8.68;;;3.42;;
30617;SDS011;17384;51.214;9.202;2023-06-05T05:56:57;4.53;;;3.13;;
30617;SDS011;17384;51.214;9.202;2023-06-05T05:59:29;10.98;;;3.88;;
30617;SDS011;17384;51.214;9.202;2023-06-05T06:01:55;6.72;;;4.05;;
30617;SDS011;17384;51.214;9.202;2023-06-05T06:04:23;7.18;;;3.33;;
30617;SDS011;17384;51.214;9.202;2023-06-05T06:06:58;6.70;;;3.60;;
30617;SDS011;17384;51.214;9.202;2023-06-05T06:09:26;9.93;;;3.13;;
30617;SDS011;17384;51.214;9.202;2023-06-05T06:11:51;11.30;;;4.50;;
30617;SDS011;17384;51.214;9.202;2023-06-05T06:14:21;8.60;;;3.17;;
30617;SDS011;17384;51.214;9.202;2023-06-05T06:19:15;9.70;;;3.92;;
30617;SDS011;17384;51.214;9.202;2023-06-05T06:21:41;9.52;;;4.10;;
30617;SDS011;17384;51.214;9.202;2023-06-05T06:24:07;6.75;;;3.58;;
30617;SDS011;17384;51.214;9.202;2023-06-05T06:26:33;9.68;;;3.42;;
30617;SDS011;17384;51.214;9.202;2023-06-05T06:29:01;8.93;;;2.97;;
30617;SDS011;17384;51.214;9.202;2023-06-05T06:31:27;8.73;;;3.03;;
30617;SDS011;17384;51.214;9.202;2023-06-05T06:33:52;7.03;;;3.28;;
30617;SDS011;17384;51.214;9.202;2023-06-05T06:36:17;8.23;;;3.42;;
30617;SDS011;17384;51.214;9.202;2023-06-05T06:38:43;9.57;;;3.30;;
30617;SDS011;17384;51.214;9.202;2023-06-05T06:41:09;7.03;;;2.22;;
30617;SDS011;17384;51.214;9.202;2023-06-05T06:43:34;6.55;;;2.95;;
30617;SDS011;17384;51.214;9.202;2023-06-05T06:46:00;5.13;;;2.70;;
30617;SDS011;17384;51.214;9.202;2023-06-05T06:48:25;6.82;;;2.78;;
30617;SDS011;17384;51.214;9.202;2023-06-05T06:50:51;4.97;;;2.40;;
30617;SDS011;17384;51.214;9.202;2023-06-05T06:53:17;7.00;;;2.75;;
30617;SDS011;17384;51.214;9.202;2023-06-05T06:55:43;4.63;;;2.55;;
30617;SDS011;17384;51.214;9.202;2023-06-05T06:58:09;8.63;;;2.95;;
30617;SDS011;17384;51.214;9.202;2023-06-05T07:00:35;5.13;;;2.42;;
30617;SDS011;17384;51.214;9.202;2023-06-05T07:03:01;5.45;;;2.70;;
30617;SDS011;17384;51.214;9.202;2023-06-05T07:05:26;8.65;;;2.55;;
30617;SDS011;17384;51.214;9.202;2023-06-05T07:07:52;6.72;;;2.83;;
30617;SDS011;17384;51.214;9.202;2023-06-05T07:10:17;7.82;;;2.42;;
30617;SDS011;17384;51.214;9.202;2023-06-05T07:12:43;3.35;;;2.17;;
30617;SDS011;17384;51.214;9.202;2023-06-05T07:15:08;4.18;;;2.38;;
30617;SDS011;17384;51.214;9.202;2023-06-05T07:17:34;6.00;;;2.10;;
30617;SDS011;17384;51.214;9.202;2023-06-05T07:19:59;6.78;;;2.70;;
30617;SDS011;17384;51.214;9.202;2023-06-05T07:22:25;5.30;;;2.33;;
30617;SDS011;17384;51.214;9.202;2023-06-05T07:24:53;5.07;;;2.22;;
30617;SDS011;17384;51.214;9.202;2023-06-05T07:27:19;5.65;;;2.30;;
30617;SDS011;17384;51.214;9.202;2023-06-05T07:29:48;4.85;;;2.22;;
30617;SDS011;17384;51.214;9.202;2023-06-05T07:32:14;3.55;;;2.45;;
30617;SDS011;17384;51.214;9.202;2023-06-05T07:34:39;4.45;;;2.22;;
30617;SDS011;17384;51.214;9.202;2023-06-05T07:37:05;6.63;;;2.30;;
30617;SDS011;17384;51.214;9.202;2023-06-05T07:39:32;8.45;;;2.53;;
30617;SDS011;17384;51.214;9.202;2023-06-05T07:41:58;4.13;;;2.67;;
30617;SDS011;17384;51.214;9.202;2023-06-05T07:44:24;4.20;;;2.15;;
30617;SDS011;17384;51.214;9.202;2023-06-05T07:46:50;8.05;;;2.08;;
30617;SDS011;17384;51.214;9.202;2023-06-05T07:49:16;7.20;;;2.10;;
30617;SDS011;17384;51.214;9.202;2023-06-05T07:51:42;6.63;;;2.10;;
30617;SDS011;17384;51.214;9.202;2023-06-05T07:54:11;3.85;;;1.70;;
30617;SDS011;17384;51.214;9.202;2023-06-05T07:56:37;7.78;;;2.53;;
30617;SDS011;17384;51.214;9.202;2023-06-05T07:59:03;6.53;;;2.15;;
30617;SDS011;17384;51.214;9.202;2023-06-05T08:01:30;5.80;;;1.77;;
30617;SDS011;17384;51.214;9.202;2023-06-05T08:03:56;3.22;;;1.90;;
30617;SDS011;17384;51.214;9.202;2023-06-05T08:06:23;6.25;;;2.05;;
30617;SDS011;17384;51.214;9.202;2023-06-05T08:08:49;4.97;;;2.35;;
30617;SDS011;17384;51.214;9.202;2023-06-05T08:11:18;4.63;;;2.28;;
30617;SDS011;17384;51.214;9.202;2023-06-05T08:13:43;7.22;;;2.65;;
30617;SDS011;17384;51.214;9.202;2023-06-05T08:16:09;8.38;;;2.72;;
30617;SDS011;17384;51.214;9.202;2023-06-05T08:18:34;6.22;;;1.90;;
30617;SDS011;17384;51.214;9.202;2023-06-05T08:21:00;4.60;;;1.58;;
30617;SDS011;17384;51.214;9.202;2023-06-05T08:23:26;6.50;;;2.10;;
30617;SDS011;17384;51.214;9.202;2023-06-05T08:25:53;4.40;;;2.10;;
30617;SDS011;17384;51.214;9.202;2023-06-05T08:28:20;2.80;;;1.50;;
30617;SDS011;17384;51.214;9.202;2023-06-05T08:30:45;7.38;;;2.20;;
30617;SDS011;17384;51.214;9.202;2023-06-05T08:33:11;3.60;;;1.83;;
30617;SDS011;17384;51.214;9.202;2023-06-05T08:35:39;2.58;;;1.50;;
30617;SDS011;17384;51.214;9.202;2023-06-05T08:38:05;4.90;;;2.30;;
30617;SDS011;17384;51.214;9.202;2023-06-05T08:40:31;4.60;;;1.95;;
30617;SDS011;17384;51.214;9.202;2023-06-05T08:43:07;6.10;;;1.95;;
30617;SDS011;17384;51.214;9.202;2023-06-05T08:45:32;5.15;;;2.08;;
30617;SDS011;17384;51.214;9.202;2023-06-05T08:48:01;3.40;;;1.85;;
30617;SDS011;17384;51.214;9.202;2023-06-05T08:50:28;3.00;;;1.73;;
30617;SDS011;17384;51.214;9.202;2023-06-05T08:52:56;11.48;;;1.80;;
30617;SDS011;17384;51.214;9.202;2023-06-05T08:55:24;3.97;;;1.67;;
30617;SDS011;17384;51.214;9.202;2023-06-05T08:57:50;5.07;;;1.85;;
30617;SDS011;17384;51.214;9.202;2023-06-05T09:00:17;7.38;;;1.58;;
30617;SDS011;17384;51.214;9.202;2023-06-05T09:02:42;7.55;;;2.33;;
30617;SDS011;17384;51.214;9.202;2023-06-05T09:05:15;6.45;;;1.88;;
30617;SDS011;17384;51.214;9.202;2023-06-05T09:07:41;3.35;;;1.83;;
30617;SDS011;17384;51.214;9.202;2023-06-05T09:10:24;2.72;;;1.50;;
30617;SDS011;17384;51.214;9.202;2023-06-05T09:13:01;3.42;;;1.80;;
30617;SDS011;17384;51.214;9.202;2023-06-05T09:15:28;4.25;;;1.92;;
30617;SDS011;17384;51.214;9.202;2023-06-05T09:18:04;5.13;;;1.77;;
30617;SDS011;17384;51.214;9.202;2023-06-05T09:20:33;2.00;;;1.30;;
30617;SDS011;17384;51.214;9.202;2023-06-05T09:23:00;2.40;;;1.45;;
30617;SDS011;17384;51.214;9.202;2023-06-05T09:25:32;3.40;;;1.60;;
30617;SDS011;17384;51.214;9.202;2023-06-05T09:28:09;3.60;;;1.70;;
30617;SDS011;17384;51.214;9.202;2023-06-05T09:30:38;2.88;;;1.90;;
30617;SDS011;17384;51.214;9.202;2023-06-05T09:33:20;7.30;;;1.75;;
30617;SDS011;17384;51.214;9.202;2023-06-05T09:35:46;3.30;;;1.83;;
30617;SDS011;17384;51.214;9.202;2023-06-05T09:38:26;5.00;;;1.50;;
30617;SDS011;17384;51.214;9.202;2023-06-05T09:40:53;5.43;;;1.80;;
30617;SDS011;17384;51.214;9.202;2023-06-05T09:45:51;3.47;;;1.80;;
30617;SDS011;17384;51.214;9.202;2023-06-05T09:48:16;4.00;;;1.48;;
30617;SDS011;17384;51.214;9.202;2023-06-05T09:50:42;3.30;;;1.60;;
30617;SDS011;17384;51.214;9.202;2023-06-05T09:53:10;2.40;;;1.67;;
30617;SDS011;17384;51.214;9.202;2023-06-05T09:55:41;3.53;;;1.75;;
30617;SDS011;17384;51.214;9.202;2023-06-05T09:58:07;2.28;;;1.85;;
30617;SDS011;17384;51.214;9.202;2023-06-05T10:00:38;5.13;;;1.83;;
30617;SDS011;17384;51.214;9.202;2023-06-05T10:03:10;2.85;;;1.75;;
30617;SDS011;17384;51.214;9.202;2023-06-05T10:05:44;2.58;;;1.60;;
30617;SDS011;17384;51.214;9.202;2023-06-05T10:08:11;4.90;;;1.42;;
30617;SDS011;17384;51.214;9.202;2023-06-05T10:10:40;4.15;;;1.92;;
30617;SDS011;17384;51.214;9.202;2023-06-05T10:13:07;9.18;;;1.63;;
30617;SDS011;17384;51.214;9.202;2023-06-05T10:15:35;4.00;;;1.55;;
30617;SDS011;17384;51.214;9.202;2023-06-05T10:18:03;3.17;;;1.50;;
30617;SDS011;17384;51.214;9.202;2023-06-05T10:20:29;5.03;;;1.67;;
30617;SDS011;17384;51.214;9.202;2023-06-05T10:22:55;5.80;;;1.52;;
30617;SDS011;17384;51.214;9.202;2023-06-05T10:25:21;4.60;;;1.70;;
30617;SDS011;17384;51.214;9.202;2023-06-05T10:27:56;3.65;;;1.75;;
30617;SDS011;17384;51.214;9.202;2023-06-05T10:35:51;5.15;;;2.10;;
30617;SDS011;17384;51.214;9.202;2023-06-05T10:38:26;5.00;;;1.83;;
30617;SDS011;17384;51.214;9.202;2023-06-05T10:40:56;2.95;;;2.05;;
30617;SDS011;17384;51.214;9.202;2023-06-05T10:45:55;8.23;;;1.98;;
30617;SDS011;17384;51.214;9.202;2023-06-05T10:48:28;2.33;;;1.70;;
30617;SDS011;17384;51.214;9.202;2023-06-05T10:51:32;2.50;;;1.60;;
30617;SDS011;17384;51.214;9.202;2023-06-05T10:54:05;3.30;;;2.15;;
30617;SDS011;17384;51.214;9.202;2023-06-05T10:59:15;5.68;;;1.98;;
30617;SDS011;17384;51.214;9.202;2023-06-05T11:01:42;12.48;;;2.00;;
30617;SDS011;17384;51.214;9.202;2023-06-05T11:04:08;2.90;;;1.75;;
30617;SDS011;17384;51.214;9.202;2023-06-05T11:06:34;6.57;;;2.15;;
30617;SDS011;17384;51.214;9.202;2023-06-05T11:09:09;5.32;;;1.58;;
30617;SDS011;17384;51.214;9.202;2023-06-05T11:11:55;7.95;;;2.40;;
30617;SDS011;17384;51.214;9.202;2023-06-05T11:14:24;7.10;;;1.83;;
30617;SDS011;17384;51.214;9.202;2023-06-05T11:30:25;3.97;;;1.90;;
30617;SDS011;17384;51.214;9.202;2023-06-05T11:32:56;3.97;;;2.20;;
30617;SDS011;17384;51.214;9.202;2023-06-05T11:35:30;8.50;;;2.60;;
30617;SDS011;17384;51.214;9.202;2023-06-05T11:38:10;10.68;;;2.03;;
30617;SDS011;17384;51.214;9.202;2023-06-05T11:40:49;4.53;;;2.55;;
30617;SDS011;17384;51.214;9.202;2023-06-05T11:43:15;3.70;;;2.00;;
30617;SDS011;17384;51.214;9.202;2023-06-05T11:45:42;6.68;;;1.67;;
30617;SDS011;17384;51.214;9.202;2023-06-05T11:48:15;8.85;;;2.15;;
30617;SDS011;17384;51.214;9.202;2023-06-05T11:53:23;3.50;;;1.67;;
30617;SDS011;17384;51.214;9.202;2023-06-05T11:55:50;2.95;;;2.00;;
30617;SDS011;17384;51.214;9.202;2023-06-05T11:58:22;3.33;;;1.88;;
30617;SDS011;17384;51.214;9.202;2023-06-05T12:00:49;4.65;;;2.30;;
30617;SDS011;17384;51.214;9.202;2023-06-05T12:03:21;3.05;;;2.10;;
30617;SDS011;17384;51.214;9.202;2023-06-05T12:05:47;3.20;;;2.00;;
30617;SDS011;17384;51.214;9.202;2023-06-05T12:08:26;2.90;;;2.03;;
30617;SDS011;17384;51.214;9.202;2023-06-05T12:10:55;4.43;;;2.08;;
30617;SDS011;17384;51.214;9.202;2023-06-05T12:16:34;2.60;;;1.80;;
30617;SDS011;17384;51.214;9.202;2023-06-05T12:19:10;4.50;;;2.05;;
30617;SDS011;17384;51.214;9.202;2023-06-05T12:21:38;5.90;;;1.80;;
30617;SDS011;17384;51.214;9.202;2023-06-05T12:24:04;3.67;;;2.30;;
30617;SDS011;17384;51.214;9.202;2023-06-05T12:26:49;3.63;;;2.42;;
30617;SDS011;17384;51.214;9.202;2023-06-05T12:29:18;5.60;;;2.22;;
30617;SDS011;17384;51.214;9.202;2023-06-05T12:31:46;6.45;;;1.92;;
30617;SDS011;17384;51.214;9.202;2023-06-05T12:34:11;10.38;;;1.80;;
30617;SDS011;17384;51.214;9.202;2023-06-05T12:36:40;2.38;;;1.65;;
30617;SDS011;17384;51.214;9.202;2023-06-05T12:39:11;8.35;;;1.98;;
30617;SDS011;17384;51.214;9.202;2023-06-05T12:41:41;3.80;;;2.08;;
30617;SDS011;17384;51.214;9.202;2023-06-05T12:44:07;4.07;;;1.80;;
30617;SDS011;17384;51.214;9.202;2023-06-05T12:46:33;7.95;;;2.22;;
30617;SDS011;17384;51.214;9.202;2023-06-05T12:49:00;6.18;;;2.28;;
30617;SDS011;17384;51.214;9.202;2023-06-05T12:51:27;7.15;;;2.00;;
30617;SDS011;17384;51.214;9.202;2023-06-05T12:53:53;4.53;;;2.20;;
30617;SDS011;17384;51.214;9.202;2023-06-05T12:56:20;4.18;;;2.55;;
30617;SDS011;17384;51.214;9.202;2023-06-05T12:58:50;4.82;;;2.10;;
30617;SDS011;17384;51.214;9.202;2023-06-05T13:01:25;5.00;;;1.92;;
30617;SDS011;17384;51.214;9.202;2023-06-05T13:03:51;7.97;;;1.73;;
30617;SDS011;17384;51.214;9.202;2023-06-05T13:06:17;4.10;;;2.40;;
30617;SDS011;17384;51.214;9.202;2023-06-05T13:08:44;4.47;;;1.92;;
30617;SDS011;17384;51.214;9.202;2023-06-05T13:11:11;6.43;;;2.10;;
30617;SDS011;17384;51.214;9.202;2023-06-05T13:13:38;8.63;;;2.33;;
30617;SDS011;17384;51.214;9.202;2023-06-05T13:16:04;4.03;;;1.95;;
30617;SDS011;17384;51.214;9.202;2023-06-05T13:18:33;3.38;;;2.00;;
30617;SDS011;17384;51.214;9.202;2023-06-05T13:21:00;5.15;;;1.95;;
30617;SDS011;17384;51.214;9.202;2023-06-05T13:23:26;6.88;;;2.20;;
30617;SDS011;17384;51.214;9.202;2023-06-05T13:25:52;4.97;;;2.20;;
30617;SDS011;17384;51.214;9.202;2023-06-05T13:28:17;7.13;;;2.10;;
30617;SDS011;17384;51.214;9.202;2023-06-05T13:30:43;3.75;;;2.00;;
30617;SDS011;17384;51.214;9.202;2023-06-05T13:33:08;2.88;;;1.85;;
30617;SDS011;17384;51.214;9.202;2023-06-05T13:35:34;4.70;;;1.98;;
30617;SDS011;17384;51.214;9.202;2023-06-05T13:37:59;4.25;;;2.10;;
30617;SDS011;17384;51.214;9.202;2023-06-05T13:40:25;4.28;;;1.92;;
30617;SDS011;17384;51.214;9.202;2023-06-05T13:42:52;6.80;;;2.10;;
30617;SDS011;17384;51.214;9.202;2023-06-05T13:45:18;2.78;;;2.15;;
30617;SDS011;17384;51.214;9.202;2023-06-05T13:47:44;2.65;;;2.10;;
30617;SDS011;17384;51.214;9.202;2023-06-05T13:50:10;5.53;;;2.72;;
30617;SDS011;17384;51.214;9.202;2023-06-05T13:52:35;3.80;;;1.90;;
30617;SDS011;17384;51.214;9.202;2023-06-05T13:55:02;6.95;;;2.05;;
30617;SDS011;17384;51.214;9.202;2023-06-05T13:57:28;5.47;;;2.13;;
30617;SDS011;17384;51.214;9.202;2023-06-05T13:59:53;4.10;;;2.28;;
30617;SDS011;17384;51.214;9.202;2023-06-05T14:02:20;4.28;;;2.17;;
30617;SDS011;17384;51.214;9.202;2023-06-05T14:04:46;4.85;;;2.17;;
30617;SDS011;17384;51.214;9.202;2023-06-05T14:07:12;2.60;;;1.90;;
30617;SDS011;17384;51.214;9.202;2023-06-05T14:09:37;3.50;;;1.98;;
30617;SDS011;17384;51.214;9.202;2023-06-05T14:12:03;7.05;;;2.67;;
30617;SDS011;17384;51.214;9.202;2023-06-05T14:14:29;8.52;;;2.50;;
30617;SDS011;17384;51.214;9.202;2023-06-05T14:16:54;4.20;;;2.33;;
30617;SDS011;17384;51.214;9.202;2023-06-05T14:19:20;6.32;;;2.13;;
30617;SDS011;17384;51.214;9.202;2023-06-05T14:21:45;3.40;;;2.38;;
30617;SDS011;17384;51.214;9.202;2023-06-05T14:24:11;3.10;;;2.20;;
30617;SDS011;17384;51.214;9.202;2023-06-05T14:26:37;3.10;;;1.92;;
30617;SDS011;17384;51.214;9.202;2023-06-05T14:29:03;5.45;;;2.13;;
30617;SDS011;17384;51.214;9.202;2023-06-05T14:31:28;4.65;;;2.08;;
30617;SDS011;17384;51.214;9.202;2023-06-05T14:33:54;10.60;;;2.50;;
30617;SDS011;17384;51.214;9.202;2023-06-05T14:36:20;2.88;;;1.70;;
30617;SDS011;17384;51.214;9.202;2023-06-05T14:38:45;11.95;;;2.00;;
30617;SDS011;17384;51.214;9.202;2023-06-05T14:41:11;5.32;;;1.90;;
30617;SDS011;17384;51.214;9.202;2023-06-05T14:43:37;3.60;;;1.90;;
30617;SDS011;17384;51.214;9.202;2023-06-05T14:46:02;5.05;;;2.40;;
30617;SDS011;17384;51.214;9.202;2023-06-05T14:48:28;4.13;;;2.22;;
30617;SDS011;17384;51.214;9.202;2023-06-05T14:50:54;4.20;;;1.83;;
30617;SDS011;17384;51.214;9.202;2023-06-05T14:53:20;5.72;;;1.95;;
30617;SDS011;17384;51.214;9.202;2023-06-05T14:55:46;5.03;;;2.35;;
30617;SDS011;17384;51.214;9.202;2023-06-05T14:58:12;3.15;;;2.17;;
30617;SDS011;17384;51.214;9.202;2023-06-05T15:00:38;5.90;;;2.30;;
30617;SDS011;17384;51.214;9.202;2023-06-05T15:03:03;9.00;;;2.30;;
30617;SDS011;17384;51.214;9.202;2023-06-05T15:05:30;5.13;;;2.08;;
30617;SDS011;17384;51.214;9.202;2023-06-05T15:07:56;8.15;;;2.10;;
30617;SDS011;17384;51.214;9.202;2023-06-05T15:10:21;5.70;;;2.47;;
30617;SDS011;17384;51.214;9.202;2023-06-05T15:12:46;7.32;;;2.17;;
30617;SDS011;17384;51.214;9.202;2023-06-05T15:15:13;4.95;;;2.40;;
30617;SDS011;17384;51.214;9.202;2023-06-05T15:17:39;3.40;;;2.10;;
30617;SDS011;17384;51.214;9.202;2023-06-05T15:20:05;4.72;;;2.22;;
30617;SDS011;17384;51.214;9.202;2023-06-05T15:22:31;5.03;;;2.35;;
30617;SDS011;17384;51.214;9.202;2023-06-05T15:24:57;3.22;;;2.17;;
30617;SDS011;17384;51.214;9.202;2023-06-05T15:27:22;5.10;;;1.98;;
30617;SDS011;17384;51.214;9.202;2023-06-05T15:29:48;5.13;;;2.05;;
30617;SDS011;17384;51.214;9.202;2023-06-05T15:32:13;5.95;;;2.17;;
30617;SDS011;17384;51.214;9.202;2023-06-05T15:34:39;4.93;;;2.38;;
30617;SDS011;17384;51.214;9.202;2023-06-05T15:37:08;3.60;;;2.40;;
30617;SDS011;17384;51.214;9.202;2023-06-05T15:39:33;2.65;;;2.15;;
30617;SDS011;17384;51.214;9.202;2023-06-05T15:41:58;2.92;;;2.15;;
30617;SDS011;17384;51.214;9.202;2023-06-05T15:44:24;5.38;;;2.30;;
30617;SDS011;17384;51.214;9.202;2023-06-05T15:46:49;3.45;;;2.33;;
30617;SDS011;17384;51.214;9.202;2023-06-05T15:49:15;4.78;;;2.28;;
30617;SDS011;17384;51.214;9.202;2023-06-05T15:51:40;4.65;;;2.50;;
30617;SDS011;17384;51.214;9.202;2023-06-05T15:54:06;4.97;;;2.30;;
30617;SDS011;17384;51.214;9.202;2023-06-05T15:56:32;3.38;;;2.22;;
30617;SDS011;17384;51.214;9.202;2023-06-05T15:58:58;3.30;;;2.10;;
30617;SDS011;17384;51.214;9.202;2023-06-05T16:01:24;6.95;;;2.45;;
30617;SDS011;17384;51.214;9.202;2023-06-05T16:03:50;3.63;;;2.22;;
30617;SDS011;17384;51.214;9.202;2023-06-05T16:06:16;4.63;;;2.15;;
30617;SDS011;17384;51.214;9.202;2023-06-05T16:08:42;4.70;;;2.25;;
30617;SDS011;17384;51.214;9.202;2023-06-05T16:11:08;5.22;;;1.95;;
30617;SDS011;17384;51.214;9.202;2023-06-05T16:13:34;4.47;;;2.33;;
30617;SDS011;17384;51.214;9.202;2023-06-05T16:16:01;5.70;;;2.13;;
30617;SDS011;17384;51.214;9.202;2023-06-05T16:18:26;4.25;;;2.00;;
30617;SDS011;17384;51.214;9.202;2023-06-05T16:20:52;5.18;;;2.47;;
30617;SDS011;17384;51.214;9.202;2023-06-05T16:23:17;5.78;;;2.53;;
30617;SDS011;17384;51.214;9.202;2023-06-05T16:25:43;3.10;;;2.22;;
30617;SDS011;17384;51.214;9.202;2023-06-05T16:28:08;4.00;;;1.80;;
30617;SDS011;17384;51.214;9.202;2023-06-05T16:30:34;3.65;;;2.50;;
30617;SDS011;17384;51.214;9.202;2023-06-05T16:32:59;4.55;;;2.05;;
30617;SDS011;17384;51.214;9.202;2023-06-05T16:35:26;6.53;;;2.67;;
30617;SDS011;17384;51.214;9.202;2023-06-05T16:37:53;4.05;;;2.58;;
30617;SDS011;17384;51.214;9.202;2023-06-05T16:40:18;3.90;;;2.25;;
30617;SDS011;17384;51.214;9.202;2023-06-05T16:42:44;7.63;;;2.38;;
30617;SDS011;17384;51.214;9.202;2023-06-05T16:45:09;7.30;;;2.45;;
30617;SDS011;17384;51.214;9.202;2023-06-05T16:47:35;2.80;;;2.35;;
30617;SDS011;17384;51.214;9.202;2023-06-05T16:50:00;3.95;;;2.40;;
30617;SDS011;17384;51.214;9.202;2023-06-05T16:52:26;6.97;;;2.72;;
30617;SDS011;17384;51.214;9.202;2023-06-05T16:54:54;3.15;;;2.30;;
30617;SDS011;17384;51.214;9.202;2023-06-05T16:57:20;3.55;;;2.35;;
30617;SDS011;17384;51.214;9.202;2023-06-05T16:59:45;3.13;;;1.95;;
30617;SDS011;17384;51.214;9.202;2023-06-05T17:02:11;3.60;;;2.28;;
30617;SDS011;17384;51.214;9.202;2023-06-05T17:04:37;3.88;;;2.65;;
30617;SDS011;17384;51.214;9.202;2023-06-05T17:07:03;3.00;;;2.30;;
30617;SDS011;17384;51.214;9.202;2023-06-05T17:09:29;5.40;;;2.55;;
30617;SDS011;17384;51.214;9.202;2023-06-05T17:11:58;5.28;;;2.10;;
30617;SDS011;17384;51.214;9.202;2023-06-05T17:14:24;3.38;;;2.30;;
30617;SDS011;17384;51.214;9.202;2023-06-05T17:16:50;8.80;;;2.80;;
30617;SDS011;17384;51.214;9.202;2023-06-05T17:19:16;5.70;;;2.60;;
30617;SDS011;17384;51.214;9.202;2023-06-05T17:21:43;7.03;;;2.33;;
30617;SDS011;17384;51.214;9.202;2023-06-05T17:24:10;11.32;;;2.78;;
30617;SDS011;17384;51.214;9.202;2023-06-05T17:26:35;6.18;;;2.75;;
30617;SDS011;17384;51.214;9.202;2023-06-05T17:29:01;3.70;;;2.75;;
30617;SDS011;17384;51.214;9.202;2023-06-05T17:31:27;5.85;;;2.15;;
30617;SDS011;17384;51.214;9.202;2023-06-05T17:33:55;4.20;;;2.28;;
30617;SDS011;17384;51.214;9.202;2023-06-05T17:36:21;5.60;;;2.20;;
30617;SDS011;17384;51.214;9.202;2023-06-05T17:38:47;4.32;;;2.70;;
30617;SDS011;17384;51.214;9.202;2023-06-05T17:41:14;4.75;;;2.17;;
30617;SDS011;17384;51.214;9.202;2023-06-05T17:43:40;2.85;;;1.85;;
30617;SDS011;17384;51.214;9.202;2023-06-05T17:46:06;4.95;;;2.20;;
30617;SDS011;17384;51.214;9.202;2023-06-05T17:48:31;2.50;;;1.95;;
30617;SDS011;17384;51.214;9.202;2023-06-05T17:50:58;4.43;;;2.03;;
30617;SDS011;17384;51.214;9.202;2023-06-05T17:53:23;4.88;;;2.00;;
30617;SDS011;17384;51.214;9.202;2023-06-05T17:55:49;4.95;;;2.38;;
30617;SDS011;17384;51.214;9.202;2023-06-05T17:58:16;4.70;;;2.47;;
30617;SDS011;17384;51.214;9.202;2023-06-05T18:00:41;6.45;;;2.22;;
30617;SDS011;17384;51.214;9.202;2023-06-05T18:03:10;4.60;;;2.05;;
30617;SDS011;17384;51.214;9.202;2023-06-05T18:05:36;3.65;;;2.42;;
30617;SDS011;17384;51.214;9.202;2023-06-05T18:08:02;4.47;;;2.13;;
30617;SDS011;17384;51.214;9.202;2023-06-05T18:10:27;5.65;;;2.47;;
30617;SDS011;17384;51.214;9.202;2023-06-05T18:12:53;3.40;;;2.30;;
30617;SDS011;17384;51.214;9.202;2023-06-05T18:15:19;4.68;;;2.15;;
30617;SDS011;17384;51.214;9.202;2023-06-05T18:17:45;3.67;;;2.03;;
30617;SDS011;17384;51.214;9.202;2023-06-05T18:20:11;3.95;;;2.25;;
30617;SDS011;17384;51.214;9.202;2023-06-05T18:22:37;5.28;;;2.30;;
30617;SDS011;17384;51.214;9.202;2023-06-05T18:25:03;6.10;;;2.80;;
30617;SDS011;17384;51.214;9.202;2023-06-05T18:27:31;3.53;;;2.40;;
30617;SDS011;17384;51.214;9.202;2023-06-05T18:29:58;4.28;;;2.30;;
30617;SDS011;17384;51.214;9.202;2023-06-05T18:32:24;6.40;;;2.20;;
30617;SDS011;17384;51.214;9.202;2023-06-05T18:34:50;7.53;;;2.70;;
30617;SDS011;17384;51.214;9.202;2023-06-05T18:37:16;4.78;;;2.78;;
30617;SDS011;17384;51.214;9.202;2023-06-05T18:39:42;7.75;;;2.70;;
30617;SDS011;17384;51.214;9.202;2023-06-05T18:42:08;6.78;;;2.40;;
30617;SDS011;17384;51.214;9.202;2023-06-05T18:44:36;4.00;;;2.45;;
30617;SDS011;17384;51.214;9.202;2023-06-05T18:47:02;3.70;;;2.60;;